createdAt,value
2023-04-23T00:00:34.437Z,100336.59
2023-04-23T00:03:10.525Z,100351.47
2023-04-23T00:05:40.136Z,100346.19
2023-04-23T00:08:07.152Z,100343.66
2023-04-23T00:10:34.379Z,100341.97
2023-04-23T00:13:03.746Z,100298.88
2023-04-23T00:15:33.348Z,100312.97
2023-04-23T00:17:59.987Z,100312.06
2023-04-23T00:20:26.750Z,100341.81
2023-04-23T00:22:55.886Z,100337.47
2023-04-23T00:25:22.651Z,100331.31
2023-04-23T00:27:49.309Z,100332.09
2023-04-23T00:30:16.861Z,100313.69
2023-04-23T00:32:44.753Z,100331.25
2023-04-23T00:35:11.450Z,100336.47
2023-04-23T00:37:40.665Z,100300.34
2023-04-23T00:40:08.221Z,100325.19
2023-04-23T00:42:35.563Z,100329.53
2023-04-23T00:45:02.415Z,100328.66
2023-04-23T00:47:31.690Z,100337.34
2023-04-23T00:50:00.222Z,100324.25
2023-04-23T00:52:27.059Z,100296.16
2023-04-23T00:54:53.786Z,100326.06
2023-04-23T00:57:23.143Z,100310.22
2023-04-23T00:59:50.250Z,100316.47
2023-04-23T01:02:17.479Z,100306.88
2023-04-23T01:04:45.232Z,100318.38
2023-04-23T01:07:15.553Z,100311.44
2023-04-23T01:09:42.234Z,100310.63
2023-04-23T01:12:09.843Z,100317.63
2023-04-23T01:14:38.066Z,100311.50
2023-04-23T01:17:06.067Z,100313.31
2023-04-23T01:19:32.834Z,100294.06
2023-04-23T01:22:01.313Z,100306.38
2023-04-23T01:24:30.143Z,100302.00
2023-04-23T01:26:58.718Z,100307.22
2023-04-23T01:29:26.172Z,100303.69
2023-04-23T01:31:55.851Z,100272.16
2023-04-23T01:34:22.688Z,100259.78
2023-04-23T01:36:51.158Z,100296.69
2023-04-23T01:39:20.161Z,100301.84
2023-04-23T01:41:47.616Z,100288.56
2023-04-23T01:44:16.750Z,100305.28
2023-04-23T01:46:43.554Z,100313.00
2023-04-23T01:49:13.088Z,100299.81
2023-04-23T01:51:42.960Z,100297.19
2023-04-23T01:54:11.882Z,100312.16
2023-04-23T01:56:38.640Z,100300.69
2023-04-23T01:59:05.645Z,100307.78
2023-04-23T02:01:50.572Z,100303.47
2023-04-23T02:04:18.152Z,100292.09
2023-04-23T02:06:47.284Z,100292.19
2023-04-23T02:09:16.290Z,100286.84
2023-04-23T02:11:43.136Z,100296.50
2023-04-23T02:14:10.695Z,100296.44
2023-04-23T02:16:37.558Z,100275.28
2023-04-23T02:19:07.038Z,100305.97
2023-04-23T02:21:33.994Z,100299.03
2023-04-23T02:24:05.342Z,100295.56
2023-04-23T02:26:32.042Z,100281.44
2023-04-23T02:28:58.710Z,100290.31
2023-04-23T02:31:25.465Z,100291.19
2023-04-23T02:33:52.100Z,100303.38
2023-04-23T02:36:18.720Z,100293.78
2023-04-23T02:38:45.778Z,100271.81
2023-04-23T02:41:12.448Z,100274.41
2023-04-23T02:43:39.154Z,100288.53
2023-04-23T02:46:08.784Z,100277.97
2023-04-23T02:48:42.075Z,100295.44
2023-04-23T02:51:10.922Z,100298.91
2023-04-23T02:53:40.034Z,100302.41
2023-04-23T02:56:07.466Z,100297.22
2023-04-23T02:58:34.694Z,100300.63
2023-04-23T03:01:02.210Z,100298.09
2023-04-23T03:03:32.432Z,100287.53
2023-04-23T03:06:01.078Z,100298.03
2023-04-23T03:08:28.285Z,100305.06
2023-04-23T03:10:55.193Z,100292.75
2023-04-23T03:13:21.885Z,100300.63
2023-04-23T03:15:49.000Z,100298.88
2023-04-23T03:18:16.133Z,100304.03
2023-04-23T03:20:45.435Z,100301.34
2023-04-23T03:23:12.071Z,100301.19
2023-04-23T03:25:39.265Z,100273.00
2023-04-23T03:28:06.175Z,100281.72
2023-04-23T03:30:33.220Z,100312.28
2023-04-23T03:33:03.167Z,100312.25
2023-04-23T03:35:33.148Z,100286.69
2023-04-23T03:37:59.851Z,100318.28
2023-04-23T03:40:26.596Z,100306.91
2023-04-23T03:42:53.303Z,100314.75
2023-04-23T03:45:19.975Z,100291.94
2023-04-23T03:47:49.578Z,100302.53
2023-04-23T03:50:17.486Z,100283.19
2023-04-23T03:52:44.393Z,100308.59
2023-04-23T03:55:11.015Z,100301.56
2023-04-23T03:57:37.761Z,100294.50
2023-04-23T04:00:08.316Z,100307.69
2023-04-23T04:02:35.129Z,100283.97
2023-04-23T04:05:02.165Z,100255.78
2023-04-23T04:07:29.645Z,100298.84
2023-04-23T04:09:58.758Z,100292.78
2023-04-23T04:12:27.703Z,100272.56
2023-04-23T04:14:56.940Z,100287.56
2023-04-23T04:17:23.674Z,100265.44
2023-04-23T04:19:52.541Z,100256.00
2023-04-23T04:22:19.306Z,100253.41
2023-04-23T04:24:52.653Z,100258.72
2023-04-23T04:27:21.901Z,100264.94
2023-04-23T04:29:48.819Z,100253.53
2023-04-23T04:32:18.414Z,100270.28
2023-04-23T04:34:45.112Z,100273.78
2023-04-23T04:37:11.721Z,100269.44
2023-04-23T04:39:38.358Z,100272.97
2023-04-23T04:42:08.003Z,100276.47
2023-04-23T04:44:37.840Z,100245.78
2023-04-23T04:47:10.025Z,100266.06
2023-04-23T04:49:37.217Z,100272.19
2023-04-23T04:52:03.838Z,100261.78
2023-04-23T04:54:30.520Z,100262.69
2023-04-23T04:57:02.496Z,100262.72
2023-04-23T04:59:34.005Z,100266.19
2023-04-23T05:02:03.014Z,100257.53
2023-04-23T05:04:29.933Z,100263.59
2023-04-23T05:06:56.601Z,100247.88
2023-04-23T05:09:25.758Z,100226.75
2023-04-23T05:11:52.618Z,100259.25
2023-04-23T05:14:21.733Z,100229.38
2023-04-23T05:16:48.498Z,100255.66
2023-04-23T05:19:15.183Z,100271.53
2023-04-23T05:21:44.180Z,100259.34
2023-04-23T05:24:10.957Z,100262.81
2023-04-23T05:26:37.600Z,100263.72
2023-04-23T05:29:04.329Z,100264.66
2023-04-23T05:31:31.225Z,100267.31
2023-04-23T05:34:00.328Z,100267.34
2023-04-23T05:36:27.502Z,100257.03
2023-04-23T05:38:54.231Z,100257.06
2023-04-23T05:41:23.187Z,100265.00
2023-04-23T05:43:49.952Z,100259.00
2023-04-23T05:46:16.777Z,100258.16
2023-04-23T05:48:47.966Z,100253.00
2023-04-23T05:51:14.612Z,100243.53
2023-04-23T05:53:43.547Z,100235.69
2023-04-23T05:56:10.212Z,100228.78
2023-04-23T05:58:39.298Z,100222.72
2023-04-23T06:01:06.075Z,100242.91
2023-04-23T06:03:35.333Z,100251.63
2023-04-23T06:06:04.346Z,100249.97
2023-04-23T06:08:33.594Z,100229.78
2023-04-23T06:11:02.556Z,100243.22
2023-04-23T06:13:31.578Z,100232.66
2023-04-23T06:16:00.935Z,100235.44
2023-04-23T06:18:27.656Z,100242.56
2023-04-23T06:20:56.731Z,100229.56
2023-04-23T06:23:23.749Z,100232.34
2023-04-23T06:25:50.487Z,100233.28
2023-04-23T06:28:19.421Z,100230.75
2023-04-23T06:30:48.347Z,100228.09
2023-04-23T06:33:15.059Z,100237.88
2023-04-23T06:35:43.962Z,100227.41
2023-04-23T06:38:10.529Z,100222.22
2023-04-23T06:40:39.378Z,100237.22
2023-04-23T06:43:08.467Z,100226.69
2023-04-23T06:45:35.287Z,100230.19
2023-04-23T06:48:04.176Z,100218.78
2023-04-23T06:50:33.442Z,100231.13
2023-04-23T06:53:00.160Z,100217.97
2023-04-23T06:55:27.368Z,100220.69
2023-04-23T06:57:54.100Z,100223.31
2023-04-23T07:00:22.145Z,100231.19
2023-04-23T07:02:48.944Z,100222.50
2023-04-23T07:05:19.856Z,100219.88
2023-04-23T07:07:51.444Z,100221.63
2023-04-23T07:10:22.988Z,100201.47
2023-04-23T07:12:49.921Z,100213.84
2023-04-23T07:15:16.709Z,100212.16
2023-04-23T07:17:43.478Z,100198.09
2023-04-23T07:20:10.491Z,100209.56
2023-04-23T07:22:37.377Z,100201.72
2023-04-23T07:25:05.446Z,100217.59
2023-04-23T07:27:37.400Z,100208.00
2023-04-23T07:30:09.463Z,100210.69
2023-04-23T07:32:36.375Z,100206.25
2023-04-23T07:35:05.975Z,100213.38
2023-04-23T07:37:32.721Z,100223.00
2023-04-23T07:40:00.871Z,100222.16
2023-04-23T07:42:29.620Z,100217.03
2023-04-23T07:44:56.391Z,100208.34
2023-04-23T07:47:23.168Z,100219.78
2023-04-23T07:49:52.580Z,100225.06
2023-04-23T07:52:21.473Z,100186.53
2023-04-23T07:54:48.170Z,100227.66
2023-04-23T07:57:17.083Z,100190.84
2023-04-23T07:59:43.967Z,100222.44
2023-04-23T08:02:11.177Z,100226.81
2023-04-23T08:04:38.076Z,100207.50
2023-04-23T08:07:04.952Z,100218.91
2023-04-23T08:09:34.067Z,100226.78
2023-04-23T08:12:02.091Z,100208.31
2023-04-23T08:14:28.842Z,100203.03
2023-04-23T08:16:57.781Z,100218.97
2023-04-23T08:19:32.305Z,100210.00
2023-04-23T08:21:58.959Z,100220.63
2023-04-23T08:24:26.192Z,100224.13
2023-04-23T08:26:53.433Z,100226.75
2023-04-23T08:29:22.396Z,100223.25
2023-04-23T08:31:49.141Z,100228.50
2023-04-23T08:34:18.061Z,100225.94
2023-04-23T08:36:46.395Z,100219.03
2023-04-23T08:39:13.092Z,100226.03
2023-04-23T08:41:44.397Z,100219.94
2023-04-23T08:44:19.317Z,100212.16
2023-04-23T08:46:48.674Z,100196.50
2023-04-23T08:49:17.420Z,100209.69
2023-04-23T08:51:49.596Z,100166.88
2023-04-23T08:54:27.304Z,100205.44
2023-04-23T08:56:58.539Z,100176.44
2023-04-23T08:59:34.622Z,100200.19
2023-04-23T09:02:08.384Z,100201.00
2023-04-23T09:04:35.730Z,100179.91
2023-04-23T09:07:02.947Z,100200.16
2023-04-23T09:09:30.484Z,100188.88
2023-04-23T09:11:59.865Z,100193.28
2023-04-23T09:14:29.109Z,100189.03
2023-04-23T09:16:55.850Z,100182.97
2023-04-23T09:19:27.665Z,100181.31
2023-04-23T09:21:58.032Z,100187.44
2023-04-23T09:24:25.489Z,100176.97
2023-04-23T09:26:55.073Z,100193.69
2023-04-23T09:29:23.851Z,100186.75
2023-04-23T09:31:55.626Z,100182.53
2023-04-23T09:34:23.838Z,100186.09
2023-04-23T09:36:52.648Z,100166.94
2023-04-23T09:39:23.310Z,100186.22
2023-04-23T09:41:53.186Z,100175.88
2023-04-23T09:44:24.654Z,100175.09
2023-04-23T09:46:51.537Z,100171.69
2023-04-23T09:49:18.218Z,100168.25
2023-04-23T09:51:47.641Z,100169.28
2023-04-23T09:54:17.133Z,100165.91
2023-04-23T09:56:44.714Z,100166.84
2023-04-23T09:59:29.396Z,100159.09
2023-04-23T10:02:06.804Z,100160.06
2023-04-23T10:04:38.689Z,100145.22
2023-04-23T10:07:19.116Z,100168.00
2023-04-23T10:09:47.768Z,100163.66
2023-04-23T10:14:50.992Z,100150.53
2023-04-23T10:17:20.366Z,100152.31
2023-04-23T10:19:50.977Z,100164.56
2023-04-23T10:22:21.815Z,100154.97
2023-04-23T10:24:58.308Z,100162.03
2023-04-23T10:27:48.410Z,100152.44
2023-04-23T10:30:17.643Z,100162.94
2023-04-23T10:32:45.225Z,100134.06
2023-04-23T10:35:12.003Z,100130.59
2023-04-23T10:37:41.819Z,100151.63
2023-04-23T10:40:12.925Z,100165.66
2023-04-23T10:42:44.434Z,100163.03
2023-04-23T10:47:50.139Z,100176.13
2023-04-23T10:50:27.376Z,100171.72
2023-04-23T10:52:56.003Z,100172.53
2023-04-23T10:55:27.964Z,100172.47
2023-04-23T10:58:04.137Z,100162.84
2023-04-23T11:00:52.290Z,100161.94
2023-04-23T11:03:44.345Z,100160.19
2023-04-23T11:06:20.470Z,100168.06
2023-04-23T11:08:56.966Z,100161.06
2023-04-23T11:11:57.876Z,100166.31
2023-04-23T11:14:52.618Z,100157.63
2023-04-23T11:17:23.543Z,100151.50
2023-04-23T11:20:16.385Z,100150.72
2023-04-23T11:22:44.965Z,100162.16
2023-04-23T11:25:19.310Z,100143.91
2023-04-23T11:27:47.445Z,100149.25
2023-04-23T11:30:16.657Z,100152.88
2023-04-23T11:32:49.405Z,100138.97
2023-04-23T11:35:20.038Z,100131.16
2023-04-23T11:37:50.771Z,100146.97
2023-04-23T11:40:22.713Z,100145.25
2023-04-23T11:42:51.746Z,100141.75
2023-04-23T11:45:22.660Z,100146.97
2023-04-23T11:47:57.388Z,100135.53
2023-04-23T11:50:33.575Z,100138.06
2023-04-23T11:53:12.487Z,100130.09
2023-04-23T11:55:43.955Z,100123.84
2023-04-23T11:58:11.603Z,100135.91
2023-04-23T12:00:38.243Z,100134.00
2023-04-23T12:03:09.811Z,100138.22
2023-04-23T12:05:42.535Z,100136.31
2023-04-23T12:08:17.417Z,100141.38
2023-04-23T12:11:01.879Z,100133.28
2023-04-23T12:13:33.828Z,100138.44
2023-04-23T12:16:10.457Z,100111.34
2023-04-23T12:18:44.161Z,100137.63
2023-04-23T12:21:14.522Z,100135.06
2023-04-23T12:23:44.804Z,100134.31
2023-04-23T12:26:13.811Z,100126.38
2023-04-23T12:29:00.231Z,100128.13
2023-04-23T12:31:28.577Z,100125.47
2023-04-23T12:34:06.236Z,100107.97
2023-04-23T12:36:33.827Z,100117.56
2023-04-23T12:39:19.294Z,100133.47
2023-04-23T12:41:45.969Z,100125.63
2023-04-23T12:44:12.631Z,100123.06
2023-04-23T12:46:39.327Z,100128.41
2023-04-23T12:49:08.381Z,100110.25
2023-04-23T12:51:35.232Z,100130.44
2023-04-23T12:54:04.585Z,100120.94
2023-04-23T12:56:31.228Z,100120.06
2023-04-23T12:59:02.004Z,100134.06
2023-04-23T13:01:30.965Z,100108.81
2023-04-23T13:04:00.046Z,100136.81
2023-04-23T13:06:26.890Z,100116.78
2023-04-23T13:08:55.593Z,100137.75
2023-04-23T13:11:22.852Z,100113.28
2023-04-23T13:13:49.534Z,100138.53
2023-04-23T13:16:18.416Z,100135.84
2023-04-23T13:18:45.057Z,100134.00
2023-04-23T13:21:14.356Z,100138.34
2023-04-23T13:23:43.023Z,100133.13
2023-04-23T13:26:09.656Z,100134.94
2023-04-23T13:28:39.150Z,100125.34
2023-04-23T13:31:06.820Z,100128.00
2023-04-23T13:33:36.337Z,100145.56
2023-04-23T13:36:03.152Z,100133.41
2023-04-23T13:38:30.581Z,100127.34
2023-04-23T13:40:57.555Z,100149.28
2023-04-23T13:43:24.517Z,100107.38
2023-04-23T13:45:54.131Z,100117.03
2023-04-23T13:48:23.320Z,100137.13
2023-04-23T13:50:52.434Z,100144.19
2023-04-23T13:53:19.059Z,100144.22
2023-04-23T13:55:45.735Z,100149.50
2023-04-23T13:58:14.926Z,100145.97
2023-04-23T14:00:44.309Z,100149.53
2023-04-23T14:03:13.159Z,100133.81
2023-04-23T14:05:39.852Z,100141.72
2023-04-23T14:08:06.586Z,100139.94
2023-04-23T14:10:34.829Z,100146.03
2023-04-23T14:13:03.899Z,100143.41
2023-04-23T14:15:33.159Z,100137.31
2023-04-23T14:17:59.952Z,100140.81
2023-04-23T14:20:29.943Z,100142.56
2023-04-23T14:23:02.564Z,100142.59
2023-04-23T14:25:40.757Z,100146.97
2023-04-23T14:28:24.485Z,100137.38
2023-04-23T14:30:56.329Z,100146.97
2023-04-23T14:33:24.052Z,100132.97
2023-04-23T14:35:53.193Z,100149.59
2023-04-23T14:38:22.100Z,100154.84
2023-04-23T14:40:48.778Z,100149.59
2023-04-23T14:43:17.604Z,100140.84
2023-04-23T14:45:44.396Z,100157.47
2023-04-23T14:48:11.339Z,100163.59
2023-04-23T14:50:38.104Z,100140.88
2023-04-23T14:53:10.178Z,100150.50
2023-04-23T14:55:36.983Z,100136.50
2023-04-23T14:58:03.609Z,100156.63
2023-04-23T15:00:30.446Z,100160.13
2023-04-23T15:02:57.278Z,100153.13
2023-04-23T15:05:24.337Z,100162.72
2023-04-23T15:07:51.924Z,100165.34
2023-04-23T15:10:20.329Z,100167.13
2023-04-23T15:12:50.778Z,100172.38
2023-04-23T15:15:36.999Z,100166.22
2023-04-23T15:18:10.505Z,100159.25
2023-04-23T15:20:37.226Z,100171.47
2023-04-23T15:23:04.481Z,100166.25
2023-04-23T15:25:34.394Z,100176.75
2023-04-23T15:28:05.780Z,100179.34
2023-04-23T15:30:32.511Z,100184.63
2023-04-23T15:32:59.328Z,100186.34
2023-04-23T15:35:27.569Z,100189.00
2023-04-23T15:37:54.890Z,100182.00
2023-04-23T15:40:23.991Z,100181.13
2023-04-23T15:42:50.972Z,100189.00
2023-04-23T15:45:20.229Z,100159.25
2023-04-23T15:47:46.946Z,100195.97
2023-04-23T15:50:16.552Z,100191.59
2023-04-23T15:52:43.257Z,100202.97
2023-04-23T15:55:09.893Z,100185.50
2023-04-23T15:57:36.638Z,100203.84
2023-04-23T16:00:06.975Z,100203.84
2023-04-23T16:02:36.817Z,100212.59
2023-04-23T16:05:03.815Z,100181.13
2023-04-23T16:07:30.620Z,100216.97
2023-04-23T16:09:59.601Z,100216.91
2023-04-23T16:12:31.363Z,100216.03
2023-04-23T16:14:58.147Z,100223.84
2023-04-23T16:17:26.714Z,100223.81
2023-04-23T16:19:53.835Z,100223.78
2023-04-23T16:22:25.672Z,100227.25
2023-04-23T16:24:52.324Z,100210.56
2023-04-23T16:27:19.299Z,100236.81
2023-04-23T16:29:48.200Z,100242.03
2023-04-23T16:32:17.851Z,100241.13
2023-04-23T16:34:44.643Z,100245.47
2023-04-23T16:37:13.185Z,100221.75
2023-04-23T16:39:40.201Z,100248.84
2023-04-23T16:42:07.149Z,100212.00
2023-04-23T16:44:36.219Z,100219.84
2023-04-23T16:47:02.918Z,100219.84
2023-04-23T16:49:29.631Z,100253.13
2023-04-23T16:51:56.785Z,100258.31
2023-04-23T16:54:23.540Z,100238.97
2023-04-23T16:56:52.398Z,100261.75
2023-04-23T16:59:21.630Z,100255.63
2023-04-23T17:01:48.400Z,100263.50
2023-04-23T17:04:15.409Z,100267.00
2023-04-23T17:06:44.516Z,100246.88
2023-04-23T17:09:13.542Z,100265.28
2023-04-23T17:11:42.564Z,100241.59
2023-04-23T17:14:09.334Z,100268.75
2023-04-23T17:16:36.225Z,100271.34
2023-04-23T17:19:03.197Z,100273.00
2023-04-23T17:21:29.966Z,100279.06
2023-04-23T17:23:56.839Z,100272.84
2023-04-23T17:26:23.600Z,100286.75
2023-04-23T17:28:55.251Z,100290.16
2023-04-23T17:31:22.084Z,100279.59
2023-04-23T17:33:51.092Z,100288.28
2023-04-23T17:36:17.875Z,100282.03
2023-04-23T17:38:46.858Z,100302.09
2023-04-23T17:41:13.652Z,100288.03
2023-04-23T17:43:40.383Z,100308.91
2023-04-23T17:46:11.904Z,100314.84
2023-04-23T17:48:38.634Z,100319.13
2023-04-23T17:51:05.500Z,100325.09
2023-04-23T17:53:34.377Z,100339.78
2023-04-23T17:56:03.863Z,100342.31
2023-04-23T17:58:34.810Z,100348.38
2023-04-23T18:01:03.134Z,100352.59
2023-04-23T18:03:30.870Z,100357.81
2023-04-23T18:05:57.908Z,100348.16
2023-04-23T18:08:24.524Z,100353.34
2023-04-23T18:10:53.359Z,100366.44
2023-04-23T18:13:22.260Z,100364.66
2023-04-23T18:15:49.927Z,100369.00
2023-04-23T18:18:17.916Z,100364.50
2023-04-23T18:20:46.295Z,100369.69
2023-04-23T18:23:14.391Z,100384.44
2023-04-23T18:25:43.752Z,100377.31
2023-04-23T18:28:12.802Z,100358.69
2023-04-23T18:30:39.767Z,100385.81
2023-04-23T18:33:43.060Z,100392.63
2023-04-23T18:36:41.745Z,100402.97
2023-04-23T18:39:11.147Z,100404.59
2023-04-23T18:41:37.972Z,100401.81
2023-04-23T18:44:07.005Z,100393.84
2023-04-23T18:46:33.796Z,100406.88
2023-04-23T18:49:37.029Z,100397.88
2023-04-23T18:52:03.835Z,100428.50
2023-04-23T18:54:30.721Z,100431.91
2023-04-23T18:56:57.483Z,100430.84
2023-04-23T18:59:24.861Z,100438.59
2023-04-23T19:01:52.017Z,100432.38
2023-04-23T19:04:18.861Z,100454.03
2023-04-23T19:06:45.774Z,100418.66
2023-04-23T19:09:12.494Z,100448.34
2023-04-23T19:11:42.135Z,100453.47
2023-04-23T19:14:08.712Z,100462.91
2023-04-23T19:16:35.520Z,100465.34
2023-04-23T19:19:02.329Z,100469.47
2023-04-23T19:21:31.795Z,100468.56
2023-04-23T19:23:58.540Z,100482.34
2023-04-23T19:26:27.526Z,100478.69
2023-04-23T19:28:54.314Z,100491.53
2023-04-23T19:31:23.282Z,100495.78
2023-04-23T19:33:49.973Z,100480.72
2023-04-23T19:36:16.630Z,100501.59
2023-04-23T19:38:43.368Z,100486.44
2023-04-23T19:41:10.144Z,100505.66
2023-04-23T19:43:36.926Z,100509.72
2023-04-23T19:46:03.571Z,100520.94
2023-04-23T19:48:31.166Z,100504.97
2023-04-23T19:51:00.677Z,100532.69
2023-04-23T19:53:27.795Z,100530.81
2023-04-23T19:55:54.660Z,100530.56
2023-04-23T19:58:23.538Z,100525.09
2023-04-23T20:00:50.667Z,100538.28
2023-04-23T20:03:22.541Z,100549.56
2023-04-23T20:05:52.554Z,100537.97
2023-04-23T20:08:26.309Z,100551.06
2023-04-23T20:10:53.840Z,100546.44
2023-04-23T20:13:23.833Z,100566.47
2023-04-23T20:15:50.608Z,100565.50
2023-04-23T20:18:18.502Z,100567.06
2023-04-23T20:20:45.858Z,100565.13
2023-04-23T20:23:12.613Z,100573.69
2023-04-23T20:25:39.889Z,100554.13
2023-04-23T20:28:08.740Z,100577.69
2023-04-23T20:30:36.555Z,100582.75
2023-04-23T20:33:03.512Z,100585.16
2023-04-23T20:35:31.601Z,100588.50
2023-04-23T20:37:58.281Z,100593.53
2023-04-23T20:40:25.290Z,100594.16
2023-04-23T20:42:52.912Z,100605.34
2023-04-23T20:45:20.831Z,100593.75
2023-04-23T20:47:48.561Z,100611.06
2023-04-23T20:50:17.791Z,100614.47
2023-04-23T20:52:46.735Z,100618.63
2023-04-23T20:55:13.365Z,100600.00
2023-04-23T20:57:42.286Z,100607.91
2023-04-23T21:00:12.133Z,100631.28
2023-04-23T21:02:39.434Z,100610.91
2023-04-23T21:05:09.493Z,100613.31
2023-04-23T21:07:36.932Z,100628.13
2023-04-23T21:10:04.821Z,100642.88
2023-04-23T21:12:32.225Z,100651.28
2023-04-23T21:15:01.567Z,100661.59
2023-04-23T21:17:28.279Z,100669.38
2023-04-23T21:19:54.903Z,100664.09
2023-04-23T21:22:24.024Z,100653.44
2023-04-23T21:24:50.753Z,100671.66
2023-04-23T21:27:22.343Z,100676.75
2023-04-23T21:29:49.384Z,100676.59
2023-04-23T21:32:16.559Z,100674.81
2023-04-23T21:34:43.259Z,100680.88
2023-04-23T21:37:12.577Z,100683.41
2023-04-23T21:39:39.441Z,100669.44
2023-04-23T21:42:08.424Z,100671.97
2023-04-23T21:44:38.448Z,100660.25
2023-04-23T21:47:05.196Z,100683.13
2023-04-23T21:49:32.851Z,100693.38
2023-04-23T21:52:00.649Z,100693.22
2023-04-23T21:54:27.333Z,100693.03
2023-04-23T21:56:54.139Z,100691.16
2023-04-23T21:59:24.481Z,100664.53
2023-04-23T22:01:54.649Z,100690.81
2023-04-23T22:04:22.564Z,100703.00
2023-04-23T22:06:49.487Z,100700.19
2023-04-23T22:09:17.347Z,100686.94
2023-04-23T22:12:01.159Z,100693.81
2023-04-23T22:14:31.222Z,100715.63
2023-04-23T22:17:02.062Z,100708.56
2023-04-23T22:19:29.354Z,100707.50
2023-04-23T22:21:55.972Z,100719.66
2023-04-23T22:24:23.567Z,100710.63
2023-04-23T22:26:53.108Z,100724.72
2023-04-23T22:29:19.886Z,100711.25
2023-04-23T22:31:51.279Z,100736.69
2023-04-23T22:34:19.411Z,100742.72
2023-04-23T22:36:46.056Z,100711.53
2023-04-23T22:39:13.013Z,100728.59
2023-04-23T22:41:41.900Z,100739.78
2023-04-23T22:44:10.687Z,100736.25
2023-04-23T22:46:37.427Z,100718.31
2023-04-23T22:49:11.207Z,100733.22
2023-04-23T22:51:40.767Z,100745.44
2023-04-23T22:54:09.744Z,100745.31
2023-04-23T22:56:37.690Z,100702.16
2023-04-23T22:59:11.998Z,100751.19
2023-04-23T23:01:40.968Z,100745.88
2023-04-23T23:04:07.835Z,100741.28
2023-04-23T23:06:37.047Z,100757.09
2023-04-23T23:09:03.764Z,100756.13
2023-04-23T23:11:30.424Z,100737.44
2023-04-23T23:13:57.307Z,100753.22
2023-04-23T23:16:24.010Z,100745.06
2023-04-23T23:18:50.736Z,100761.06
2023-04-23T23:21:19.668Z,100758.28
2023-04-23T23:23:46.265Z,100770.41
2023-04-23T23:26:15.308Z,100775.53
2023-04-23T23:28:42.047Z,100759.53
2023-04-23T23:31:09.594Z,100782.28
2023-04-23T23:33:36.433Z,100782.25
2023-04-23T23:36:03.218Z,100766.91
2023-04-23T23:38:29.872Z,100798.59
2023-04-23T23:40:56.466Z,100792.53
2023-04-23T23:43:23.172Z,100786.22
2023-04-23T23:45:49.925Z,100802.78
2023-04-23T23:48:16.865Z,100784.25
2023-04-23T23:50:46.778Z,100781.59
2023-04-23T23:53:13.497Z,100805.22
2023-04-23T23:55:40.789Z,100792.72
2023-04-23T23:58:07.569Z,100817.16
